Time;durP1;ratioP1;P1;durP2;ratioP2;P2;SDS_P1;SDS_P2;PMS_P1;PMS_P2;Temp;Humidity;BMP_temperature;BMP_pressure;BME280_temperature;BME280_humidity;BME280_pressure;Samples;Min_cycle;Max_cycle;Signal;HPM_P1;HPM_P2
2023/09/05 00:00:45;;;;;;;4.70;2.50;;;18.70;99.90;;;;;;4843855;29;20452;-81
2023/09/05 00:03:10;;;;;;;3.13;2.10;;;18.80;99.90;;;;;;4844113;29;20535;-80
2023/09/05 00:05:36;;;;;;;3.27;2.40;;;18.70;99.90;;;;;;4844028;29;20233;-81
2023/09/05 00:08:02;;;;;;;3.60;2.60;;;18.80;99.90;;;;;;4843912;29;20715;-82
2023/09/05 00:10:28;;;;;;;3.73;2.50;;;18.80;99.90;;;;;;4843671;29;20272;-81
2023/09/05 00:12:53;;;;;;;4.93;2.20;;;18.80;99.90;;;;;;4843919;29;20498;-80
2023/09/05 00:15:19;;;;;;;4.03;2.30;;;18.80;99.90;;;;;;4843685;29;20192;-80
2023/09/05 00:17:45;;;;;;;7.33;2.23;;;18.80;99.90;;;;;;4843979;29;20188;-82
2023/09/05 00:20:15;;;;;;;2.60;1.67;;;18.70;99.90;;;;;;4843621;29;20397;-82
2023/09/05 00:22:40;;;;;;;3.20;2.00;;;18.80;99.90;;;;;;4843841;29;20199;-81
2023/09/05 00:25:07;;;;;;;4.33;2.40;;;18.80;99.90;;;;;;4843655;29;20406;-81
2023/09/05 00:27:34;;;;;;;3.80;2.07;;;18.90;99.90;;;;;;4843859;29;20418;-81
2023/09/05 00:30:03;;;;;;;3.50;2.40;;;19.00;99.90;;;;;;4844348;29;20930;-80
2023/09/05 00:32:29;;;;;;;3.70;2.60;;;19.00;99.90;;;;;;4843694;29;20436;-81
2023/09/05 00:34:54;;;;;;;4.77;2.50;;;19.00;99.90;;;;;;4844140;29;20441;-83
2023/09/05 00:37:23;;;;;;;3.53;1.90;;;19.00;99.90;;;;;;4843993;29;20746;-81
2023/09/05 00:39:49;;;;;;;3.87;1.90;;;19.00;99.90;;;;;;4843757;29;20261;-83
2023/09/05 00:42:15;;;;;;;3.43;1.93;;;19.10;99.90;;;;;;4843454;29;20425;-81
2023/09/05 00:44:42;;;;;;;4.23;2.10;;;19.00;99.90;;;;;;4843608;29;20400;-81
2023/09/05 00:47:11;;;;;;;2.37;2.00;;;19.10;99.90;;;;;;4842994;29;20496;-82
2023/09/05 00:49:41;;;;;;;2.40;2.20;;;19.10;99.90;;;;;;4843524;29;20905;-81
2023/09/05 00:52:08;;;;;;;2.70;2.00;;;19.10;99.90;;;;;;4843545;29;20449;-82
2023/09/05 00:54:35;;;;;;;2.90;2.40;;;19.10;99.90;;;;;;4843751;29;20480;-81
2023/09/05 00:57:01;;;;;;;4.37;1.97;;;19.10;99.90;;;;;;4846763;29;20775;-80
2023/09/05 00:59:27;;;;;;;5.40;1.80;;;19.20;99.90;;;;;;4847021;29;20429;-83
2023/09/05 01:01:55;;;;;;;2.50;1.90;;;19.10;99.90;;;;;;4847046;29;20422;-81
2023/09/05 01:04:20;;;;;;;3.10;2.07;;;19.10;99.90;;;;;;4847067;29;20189;-81
2023/09/05 01:06:58;;;;;;;2.67;1.73;;;19.20;99.90;;;;;;4847479;29;20922;-80
2023/09/05 01:09:39;;;;;;;1.80;1.70;;;19.10;99.90;;;;;;4846392;29;20226;-85
2023/09/05 01:12:06;;;;;;;3.60;2.47;;;19.10;99.90;;;;;;4847089;29;20405;-81
2023/09/05 01:14:32;;;;;;;4.63;2.23;;;19.20;99.90;;;;;;4847020;29;20437;-81
2023/09/05 01:17:01;;;;;;;2.33;2.10;;;19.10;99.90;;;;;;4847082;29;20392;-81
2023/09/05 01:19:28;;;;;;;5.13;1.90;;;19.20;99.90;;;;;;4846472;29;20193;-83
2023/09/05 01:22:01;;;;;;;2.20;2.00;;;19.20;99.90;;;;;;4846944;29;20389;-81
2023/09/05 01:24:26;;;;;;;4.00;2.23;;;19.20;99.90;;;;;;4846527;29;20516;-81
2023/09/05 01:26:53;;;;;;;3.03;2.20;;;19.20;99.90;;;;;;4846902;29;20492;-81
2023/09/05 01:29:29;;;;;;;3.00;2.17;;;19.20;99.90;;;;;;4846502;29;20173;-81
2023/09/05 01:31:58;;;;;;;3.43;2.07;;;19.20;99.90;;;;;;4846353;29;20522;-82
2023/09/05 01:34:24;;;;;;;4.07;2.50;;;19.30;99.90;;;;;;4845912;29;20468;-81
2023/09/05 01:36:49;;;;;;;7.73;2.07;;;19.30;99.90;;;;;;4846534;29;20439;-84
2023/09/05 01:39:15;;;;;;;2.40;1.97;;;19.30;99.90;;;;;;4846073;29;20487;-80
2023/09/05 01:41:41;;;;;;;2.67;1.93;;;19.30;99.90;;;;;;4846560;29;20237;-82
2023/09/05 01:44:07;;;;;;;2.40;2.10;;;19.30;99.90;;;;;;4846289;29;20180;-83
2023/09/05 01:46:32;;;;;;;5.27;1.90;;;19.40;99.90;;;;;;4846773;29;20924;-81
2023/09/05 01:48:58;;;;;;;1.90;1.80;;;19.40;99.90;;;;;;4845847;29;20241;-82
2023/09/05 01:51:24;;;;;;;2.57;2.20;;;19.40;99.90;;;;;;4845643;29;20276;-81
2023/09/05 01:53:49;;;;;;;2.53;2.23;;;19.40;99.90;;;;;;4845560;29;20217;-81
2023/09/05 01:56:15;;;;;;;4.87;2.03;;;19.30;99.90;;;;;;4845196;29;20275;-83
2023/09/05 01:58:40;;;;;;;3.03;2.03;;;19.30;99.90;;;;;;4846022;29;20192;-81
2023/09/05 02:01:06;;;;;;;2.63;2.00;;;19.30;99.90;;;;;;4845824;29;20520;-81
2023/09/05 02:03:32;;;;;;;4.97;2.30;;;19.30;99.90;;;;;;4845609;29;20199;-81
2023/09/05 02:05:58;;;;;;;3.20;2.37;;;19.30;99.90;;;;;;4845471;29;20462;-81
2023/09/05 02:08:23;;;;;;;4.67;2.30;;;19.20;99.90;;;;;;4844198;29;20192;-82
2023/09/05 02:10:49;;;;;;;5.27;2.73;;;19.20;99.90;;;;;;4845826;29;20259;-81
2023/09/05 02:13:16;;;;;;;3.00;1.93;;;19.20;99.90;;;;;;4843963;29;20235;-81
2023/09/05 02:15:43;;;;;;;3.10;2.60;;;19.10;99.90;;;;;;4845530;29;20338;-81
2023/09/05 02:18:10;;;;;;;4.00;2.50;;;19.10;99.90;;;;;;4845914;29;20895;-81
2023/09/05 02:20:37;;;;;;;4.03;2.47;;;19.00;99.90;;;;;;4845680;29;20417;-81
2023/09/05 02:23:03;;;;;;;4.83;2.07;;;18.90;99.90;;;;;;4845224;29;20400;-81
2023/09/05 02:25:28;;;;;;;3.63;2.73;;;18.90;99.90;;;;;;4845437;29;20760;-82
2023/09/05 02:27:54;;;;;;;5.67;2.77;;;18.90;99.90;;;;;;4845970;29;20185;-81
2023/09/05 02:30:20;;;;;;;4.00;2.77;;;18.80;99.90;;;;;;4845670;29;20191;-81
2023/09/05 02:32:53;;;;;;;4.87;2.33;;;18.70;99.90;;;;;;4845792;29;20654;-82
2023/09/05 02:35:21;;;;;;;3.73;2.10;;;18.70;99.90;;;;;;4844596;29;20610;-82
2023/09/05 02:37:55;;;;;;;3.20;2.30;;;18.70;99.90;;;;;;4845592;29;20504;-81
2023/09/05 02:40:21;;;;;;;2.67;2.47;;;18.80;99.90;;;;;;4845635;29;20422;-79
2023/09/05 02:42:46;;;;;;;3.93;2.30;;;18.80;99.90;;;;;;4846228;29;20473;-80
2023/09/05 02:45:13;;;;;;;2.93;2.27;;;18.70;99.90;;;;;;4845795;29;20911;-82
2023/09/05 02:47:39;;;;;;;3.80;2.77;;;18.70;99.90;;;;;;4845638;29;20642;-83
2023/09/05 02:50:05;;;;;;;8.93;3.07;;;18.60;99.90;;;;;;4845621;29;20412;-81
2023/09/05 02:52:33;;;;;;;3.30;2.57;;;18.60;99.90;;;;;;4845010;29;20855;-81
2023/09/05 02:54:58;;;;;;;3.83;2.43;;;18.50;99.90;;;;;;4845309;29;20931;-81
2023/09/05 02:57:24;;;;;;;4.33;2.47;;;18.50;99.90;;;;;;4845325;29;20421;-80
2023/09/05 02:59:53;;;;;;;3.70;2.70;;;18.40;99.90;;;;;;4845252;29;20550;-80
2023/09/05 03:02:21;;;;;;;6.97;2.90;;;18.30;99.90;;;;;;4844391;29;20181;-81
2023/09/05 03:04:51;;;;;;;3.90;2.50;;;18.30;99.90;;;;;;4844840;29;20959;-80
2023/09/05 03:07:17;;;;;;;3.43;2.50;;;18.30;99.90;;;;;;4845006;29;20425;-82
2023/09/05 03:09:43;;;;;;;3.20;2.23;;;18.30;99.90;;;;;;4845056;29;20446;-82
2023/09/05 03:12:08;;;;;;;2.93;2.50;;;18.30;99.90;;;;;;4844794;29;20427;-81
2023/09/05 03:14:34;;;;;;;4.10;2.50;;;18.30;99.90;;;;;;4844751;29;20611;-81
2023/09/05 03:17:02;;;;;;;4.27;2.90;;;18.30;99.90;;;;;;4844505;29;20627;-81
2023/09/05 03:19:27;;;;;;;2.93;2.37;;;18.20;99.90;;;;;;4844218;29;20195;-81
2023/09/05 03:21:53;;;;;;;2.80;2.10;;;18.20;99.90;;;;;;4844947;29;20381;-81
2023/09/05 03:24:21;;;;;;;3.60;2.40;;;18.20;99.90;;;;;;4844611;29;20196;-81
2023/09/05 03:26:46;;;;;;;4.43;2.70;;;18.10;99.90;;;;;;4844648;29;20193;-80
2023/09/05 03:29:13;;;;;;;2.83;2.23;;;18.00;99.90;;;;;;4844664;29;20983;-82
2023/09/05 03:31:39;;;;;;;2.50;2.07;;;18.00;99.90;;;;;;4844267;29;20177;-81
2023/09/05 03:34:05;;;;;;;10.23;2.90;;;18.00;99.90;;;;;;4844476;29;20469;-81
2023/09/05 03:36:32;;;;;;;2.40;1.90;;;18.00;99.90;;;;;;4844684;29;20413;-80
2023/09/05 03:38:58;;;;;;;7.10;2.90;;;18.00;99.90;;;;;;4844951;29;20188;-80
2023/09/05 03:41:24;;;;;;;3.77;3.03;;;18.10;99.90;;;;;;4844315;29;20385;-80
2023/09/05 03:43:49;;;;;;;3.93;2.50;;;18.10;99.90;;;;;;4844523;29;20211;-81
2023/09/05 03:46:15;;;;;;;6.73;2.70;;;18.10;99.90;;;;;;4844323;29;20447;-82
2023/09/05 03:48:41;;;;;;;3.53;2.13;;;18.10;99.90;;;;;;4844978;29;20180;-81
2023/09/05 03:51:06;;;;;;;3.47;2.50;;;18.10;99.90;;;;;;4844642;29;20620;-80
2023/09/05 03:53:32;;;;;;;2.97;2.00;;;18.10;99.90;;;;;;4844238;29;20272;-80
2023/09/05 03:55:57;;;;;;;9.10;2.57;;;18.10;99.90;;;;;;4844732;29;20198;-80
2023/09/05 03:58:23;;;;;;;3.47;2.60;;;18.10;99.90;;;;;;4844501;29;20192;-81
2023/09/05 04:00:49;;;;;;;3.23;1.87;;;18.10;99.90;;;;;;4844231;29;20544;-82
2023/09/05 04:03:14;;;;;;;3.10;2.03;;;18.00;99.90;;;;;;4844476;29;20223;-80
2023/09/05 04:05:40;;;;;;;2.37;2.03;;;18.10;99.90;;;;;;4843382;29;20224;-83
2023/09/05 04:08:06;;;;;;;4.03;1.97;;;18.00;99.90;;;;;;4843962;29;20188;-81
2023/09/05 04:10:32;;;;;;;3.50;2.13;;;18.00;99.90;;;;;;4843524;29;20185;-80
2023/09/05 04:12:58;;;;;;;2.80;2.13;;;18.00;99.90;;;;;;4844385;29;20998;-82
2023/09/05 04:15:23;;;;;;;3.53;1.97;;;18.00;99.90;;;;;;4843881;29;20181;-82
2023/09/05 04:17:52;;;;;;;4.00;2.73;;;18.00;99.90;;;;;;4843804;29;20535;-81
2023/09/05 04:20:18;;;;;;;2.93;2.13;;;18.00;99.90;;;;;;4843737;29;20523;-80
2023/09/05 04:22:44;;;;;;;5.20;2.40;;;18.00;99.90;;;;;;4844298;29;20456;-80
2023/09/05 04:25:10;;;;;;;3.90;2.30;;;17.90;99.90;;;;;;4844552;29;20422;-80
2023/09/05 04:27:36;;;;;;;4.93;2.90;;;17.90;99.90;;;;;;4845141;29;20769;-80
2023/09/05 04:30:03;;;;;;;4.50;2.50;;;17.90;99.90;;;;;;4843649;29;20749;-80
2023/09/05 04:32:30;;;;;;;3.17;2.30;;;17.90;99.90;;;;;;4843829;29;20646;-79
2023/09/05 04:35:01;;;;;;;4.20;2.90;;;17.90;99.90;;;;;;4843985;29;20415;-80
2023/09/05 04:37:27;;;;;;;5.07;2.37;;;17.90;99.90;;;;;;4843626;29;20918;-80
2023/09/05 04:39:54;;;;;;;5.97;2.40;;;17.90;99.90;;;;;;4844122;29;20424;-80
2023/09/05 04:42:20;;;;;;;3.50;2.70;;;17.90;99.90;;;;;;4843386;29;20397;-81
2023/09/05 04:44:46;;;;;;;6.30;2.47;;;17.90;99.90;;;;;;4843562;29;20396;-81
2023/09/05 04:47:26;;;;;;;2.40;2.00;;;17.90;99.90;;;;;;4843914;29;20919;-81
2023/09/05 04:49:53;;;;;;;6.10;3.20;;;17.90;99.90;;;;;;4843610;29;20189;-80
2023/09/05 04:52:20;;;;;;;4.10;2.70;;;17.90;99.90;;;;;;4843452;29;20895;-81
2023/09/05 04:54:46;;;;;;;7.50;2.60;;;17.90;99.90;;;;;;4843594;29;20745;-82
2023/09/05 04:57:13;;;;;;;3.67;2.47;;;17.90;99.90;;;;;;4843627;29;20450;-82
2023/09/05 04:59:40;;;;;;;2.77;2.20;;;17.90;99.90;;;;;;4843197;29;20421;-80
2023/09/05 05:02:06;;;;;;;3.63;2.73;;;17.90;99.90;;;;;;4844071;29;21029;-81
2023/09/05 05:04:32;;;;;;;3.37;2.70;;;18.00;99.90;;;;;;4843702;29;20456;-80
2023/09/05 05:06:57;;;;;;;3.40;2.40;;;18.10;99.90;;;;;;4843974;29;20475;-81
2023/09/05 05:09:23;;;;;;;4.70;2.87;;;18.10;99.90;;;;;;4843734;29;20208;-81
2023/09/05 05:11:49;;;;;;;5.83;3.03;;;18.10;99.90;;;;;;4843493;29;20193;-80
2023/09/05 05:14:14;;;;;;;4.10;2.30;;;18.10;99.90;;;;;;4843853;29;20476;-81
2023/09/05 05:16:43;;;;;;;5.03;2.70;;;18.10;99.90;;;;;;4843509;29;20193;-80
2023/09/05 05:19:12;;;;;;;5.30;2.77;;;18.10;99.90;;;;;;4843508;29;20204;-80
2023/09/05 05:21:38;;;;;;;3.53;2.70;;;18.10;99.90;;;;;;4843426;29;20414;-83
2023/09/05 05:24:05;;;;;;;3.87;2.40;;;18.20;99.90;;;;;;4843344;29;20395;-83
2023/09/05 05:26:31;;;;;;;3.17;1.97;;;18.20;99.90;;;;;;4843041;29;20181;-81
2023/09/05 05:28:56;;;;;;;3.87;2.50;;;18.30;99.90;;;;;;4843423;29;20766;-80
2023/09/05 05:31:22;;;;;;;3.90;2.30;;;18.20;99.90;;;;;;4843422;29;20189;-80
2023/09/05 05:33:48;;;;;;;3.17;2.87;;;18.30;99.90;;;;;;4843971;29;20224;-80
2023/09/05 05:36:14;;;;;;;2.90;2.60;;;18.30;99.90;;;;;;4843267;29;20420;-80
2023/09/05 05:38:39;;;;;;;4.70;2.43;;;18.40;99.90;;;;;;4842968;29;20234;-81
2023/09/05 05:41:09;;;;;;;4.13;2.63;;;18.40;99.90;;;;;;4843613;29;20208;-82
2023/09/05 05:43:38;;;;;;;2.90;2.60;;;18.30;99.90;;;;;;4846579;29;20761;-80
2023/09/05 05:46:04;;;;;;;4.23;2.50;;;18.30;99.90;;;;;;4846682;29;20483;-80
2023/09/05 05:48:29;;;;;;;3.27;2.27;;;18.30;99.90;;;;;;4845132;29;20472;-81
2023/09/05 05:50:58;;;;;;;3.70;2.57;;;18.30;99.90;;;;;;4846316;29;20189;-81
2023/09/05 05:53:24;;;;;;;3.50;2.60;;;18.30;99.90;;;;;;4846685;29;20208;-82
2023/09/05 05:55:50;;;;;;;4.83;2.80;;;18.40;99.90;;;;;;4846899;29;20409;-80
2023/09/05 05:58:16;;;;;;;4.60;2.40;;;18.40;99.90;;;;;;4846757;29;20400;-80
2023/09/05 06:00:50;;;;;;;3.30;2.23;;;18.40;99.90;;;;;;4846455;29;20231;-82
2023/09/05 06:03:20;;;;;;;6.50;2.90;;;18.50;99.90;;;;;;4846698;29;20540;-80
2023/09/05 06:05:47;;;;;;;2.40;2.03;;;18.50;99.90;;;;;;4846102;29;20469;-81
2023/09/05 06:08:13;;;;;;;4.43;2.43;;;18.50;99.90;;;;;;4846294;29;20414;-80
2023/09/05 06:10:38;;;;;;;5.33;2.80;;;18.60;99.90;;;;;;4846476;29;20462;-80
2023/09/05 06:13:05;;;;;;;4.00;2.40;;;18.70;99.90;;;;;;4846456;29;20461;-81
2023/09/05 06:15:34;;;;;;;4.13;2.70;;;18.70;99.90;;;;;;4845861;29;20216;-80
2023/09/05 06:18:04;;;;;;;4.17;2.70;;;18.80;99.90;;;;;;4846000;29;20416;-80
2023/09/05 06:20:29;;;;;;;3.73;2.10;;;18.80;99.90;;;;;;4846081;29;20430;-80
2023/09/05 06:22:55;;;;;;;3.10;2.70;;;18.90;99.90;;;;;;4846587;29;20455;-80
2023/09/05 06:25:21;;;;;;;3.13;2.33;;;18.90;99.90;;;;;;4846404;29;20185;-81
2023/09/05 06:27:47;;;;;;;3.23;2.00;;;18.90;99.90;;;;;;4845798;29;20189;-81
2023/09/05 06:30:13;;;;;;;3.70;2.23;;;19.00;99.90;;;;;;4846172;29;20471;-80
2023/09/05 06:32:39;;;;;;;5.23;2.80;;;19.00;99.90;;;;;;4845716;29;20273;-81
2023/09/05 06:35:05;;;;;;;3.37;2.60;;;19.10;99.90;;;;;;4845853;29;20520;-81
2023/09/05 06:37:33;;;;;;;2.90;2.30;;;19.10;99.90;;;;;;4845770;29;20517;-81
2023/09/05 06:40:00;;;;;;;5.50;2.87;;;19.20;99.90;;;;;;4845809;29;20459;-80
2023/09/05 06:42:25;;;;;;;2.80;2.30;;;19.20;99.90;;;;;;4845498;29;20399;-85
2023/09/05 06:44:51;;;;;;;5.00;3.13;;;19.30;99.90;;;;;;4844496;29;20422;-90
2023/09/05 06:47:17;;;;;;;3.67;2.53;;;19.40;99.90;;;;;;4844788;29;20184;-90
2023/09/05 06:49:42;;;;;;;4.60;2.80;;;19.40;99.90;;;;;;4845138;29;20220;-89
2023/09/05 06:52:08;;;;;;;3.10;2.57;;;19.50;99.90;;;;;;4844788;29;20645;-89
2023/09/05 06:54:34;;;;;;;7.73;2.73;;;19.50;99.90;;;;;;4844647;29;20220;-90
2023/09/05 06:57:00;;;;;;;3.93;2.40;;;19.60;99.90;;;;;;4844703;29;20192;-89
2023/09/05 06:59:25;;;;;;;3.20;2.80;;;19.70;99.90;;;;;;4845003;29;20400;-89
2023/09/05 07:01:51;;;;;;;9.23;3.30;;;19.70;99.90;;;;;;4844710;29;20264;-92
2023/09/05 07:04:17;;;;;;;2.30;2.10;;;19.80;99.90;;;;;;4843966;29;20255;-89
2023/09/05 07:06:43;;;;;;;5.43;3.80;;;19.90;99.90;;;;;;4844254;29;20406;-87
2023/09/05 07:09:08;;;;;;;4.47;2.43;;;19.90;99.90;;;;;;4844476;29;20189;-90
2023/09/05 07:11:34;;;;;;;5.10;3.10;;;20.00;99.90;;;;;;4843648;29;20229;-88
2023/09/05 07:14:00;;;;;;;3.57;2.43;;;20.10;99.90;;;;;;4844544;29;20295;-87
2023/09/05 07:16:26;;;;;;;5.10;2.33;;;20.20;99.90;;;;;;4843681;29;20425;-87
2023/09/05 07:18:51;;;;;;;2.93;2.20;;;20.30;99.90;;;;;;4843477;29;20185;-89
2023/09/05 07:21:17;;;;;;;4.60;2.60;;;20.30;99.90;;;;;;4844026;29;20422;-87
2023/09/05 07:23:43;;;;;;;9.00;3.10;;;20.50;99.90;;;;;;4846167;29;20184;-88
2023/09/05 07:26:08;;;;;;;3.70;2.50;;;20.60;99.90;;;;;;4850684;29;20622;-91
2023/09/05 07:28:34;;;;;;;3.30;2.60;;;20.70;99.90;;;;;;4845766;29;20212;-89
2023/09/05 07:31:01;;;;;;;4.83;2.57;;;20.70;99.90;;;;;;4846884;29;20188;-90
2023/09/05 07:33:27;;;;;;;5.83;2.67;;;20.80;99.90;;;;;;4845339;29;20695;-89
2023/09/05 07:35:52;;;;;;;3.93;2.40;;;20.90;99.90;;;;;;4844603;29;20525;-85
2023/09/05 07:38:21;;;;;;;4.37;2.70;;;21.00;99.90;;;;;;4843867;29;20419;-81
2023/09/05 07:40:48;;;;;;;3.20;2.50;;;21.10;99.90;;;;;;4845099;29;20542;-81
2023/09/05 07:43:13;;;;;;;7.67;2.97;;;21.20;99.90;;;;;;4845413;29;20412;-81
2023/09/05 07:45:39;;;;;;;4.87;2.60;;;21.30;99.90;;;;;;4845090;29;20922;-82
2023/09/05 07:48:07;;;;;;;4.27;2.73;;;21.30;99.90;;;;;;4844884;29;20657;-82
2023/09/05 07:50:34;;;;;;;4.10;2.50;;;21.40;99.90;;;;;;4844142;29;20172;-82
2023/09/05 07:53:00;;;;;;;3.77;2.53;;;21.50;99.90;;;;;;4844261;29;20519;-82
2023/09/05 07:55:26;;;;;;;3.43;2.80;;;21.60;99.90;;;;;;4844387;29;20505;-84
2023/09/05 07:57:52;;;;;;;3.20;2.20;;;21.50;99.90;;;;;;4842846;29;20192;-84
2023/09/05 08:00:19;;;;;;;8.53;2.90;;;21.60;99.90;;;;;;4844295;29;20199;-84
2023/09/05 08:02:45;;;;;;;5.17;2.40;;;21.70;99.90;;;;;;4875256;29;20432;-83
2023/09/05 08:05:11;;;;;;;4.00;2.70;;;21.80;99.90;;;;;;4881074;29;20480;-82
2023/09/05 08:07:38;;;;;;;2.70;2.17;;;21.90;99.90;;;;;;4880933;29;20419;-82
2023/09/05 08:10:05;;;;;;;3.00;2.30;;;22.00;99.90;;;;;;4880705;29;20828;-82
2023/09/05 08:12:31;;;;;;;4.30;2.60;;;22.10;99.90;;;;;;4880497;29;20420;-84
2023/09/05 08:14:56;;;;;;;10.53;3.20;;;22.20;99.90;;;;;;4880996;29;20469;-82
2023/09/05 08:17:22;;;;;;;4.37;2.70;;;22.30;99.90;;;;;;4880587;29;20191;-83
2023/09/05 08:19:47;;;;;;;6.33;2.20;;;22.40;99.90;;;;;;4880269;29;20235;-81
2023/09/05 08:22:13;;;;;;;3.33;2.50;;;22.50;99.90;;;;;;4880506;29;20343;-85
2023/09/05 08:24:38;;;;;;;2.87;2.33;;;22.60;99.90;;;;;;4880389;29;20195;-83
2023/09/05 08:27:05;;;;;;;2.23;2.00;;;22.60;99.90;;;;;;4880458;29;20551;-84
2023/09/05 08:29:32;;;;;;;2.60;2.20;;;22.80;99.90;;;;;;4880383;29;20187;-82
2023/09/05 08:31:58;;;;;;;6.03;2.80;;;23.10;99.90;;;;;;4880496;29;20412;-84
2023/09/05 08:34:24;;;;;;;3.87;2.90;;;23.50;99.90;;;;;;4880120;29;20483;-83
2023/09/05 08:36:50;;;;;;;4.33;2.80;;;23.80;99.90;;;;;;4879938;29;20412;-82
2023/09/05 08:39:15;;;;;;;2.70;2.30;;;24.00;99.90;;;;;;4880337;29;20187;-82
2023/09/05 08:41:43;;;;;;;2.90;1.93;;;24.20;99.90;;;;;;4879816;29;20183;-82
2023/09/05 08:44:08;;;;;;;3.80;2.53;;;24.70;99.90;;;;;;4880044;29;20219;-84
2023/09/05 08:46:37;;;;;;;5.07;2.30;;;25.10;99.90;;;;;;4879825;29;20463;-83
2023/09/05 08:49:03;;;;;;;9.00;2.43;;;25.20;99.90;;;;;;4878952;29;20190;-81
2023/09/05 08:51:34;;;;;;;5.23;2.47;;;25.20;99.90;;;;;;4880063;29;20408;-82
2023/09/05 08:54:03;;;;;;;3.07;2.00;;;25.50;99.90;;;;;;4879976;29;20286;-83
2023/09/05 08:56:29;;;;;;;5.00;2.57;;;25.60;99.90;;;;;;4880048;29;20427;-82
2023/09/05 08:58:56;;;;;;;3.13;2.50;;;25.90;99.90;;;;;;4879802;29;20534;-83
2023/09/05 09:01:24;;;;;;;2.70;2.20;;;25.70;99.90;;;;;;4879987;29;20179;-82
2023/09/05 09:03:51;;;;;;;2.57;2.13;;;25.80;99.90;;;;;;4879622;29;20434;-83
2023/09/05 09:06:20;;;;;;;2.67;1.90;;;26.20;99.90;;;;;;4879855;29;20471;-83
2023/09/05 09:08:46;;;;;;;2.73;2.10;;;26.30;99.90;;;;;;4873654;29;20416;-82
2023/09/05 09:11:12;;;;;;;2.10;1.90;;;26.70;99.90;;;;;;4865940;29;20789;-84
2023/09/05 09:13:38;;;;;;;2.70;2.00;;;26.70;99.90;;;;;;4872427;29;20215;-82
2023/09/05 09:16:05;;;;;;;3.53;2.37;;;26.90;99.90;;;;;;4873829;29;20632;-83
2023/09/05 09:18:33;;;;;;;6.33;2.17;;;26.90;99.90;;;;;;4883491;29;20425;-82
2023/09/05 09:21:04;;;;;;;2.50;1.90;;;26.80;99.90;;;;;;4883262;29;20420;-83
2023/09/05 09:23:33;;;;;;;2.73;2.37;;;27.10;99.90;;;;;;4881867;29;20428;-83
2023/09/05 09:26:00;;;;;;;4.43;2.20;;;27.80;99.90;;;;;;4881545;29;20522;-83
2023/09/05 09:28:28;;;;;;;4.77;1.90;;;27.80;99.90;;;;;;4883081;29;20892;-83
2023/09/05 09:31:02;;;;;;;3.03;2.20;;;28.10;99.90;;;;;;4882642;29;20492;-83
2023/09/05 09:33:31;;;;;;;3.60;2.33;;;28.30;99.90;;;;;;4882851;29;20966;-84
2023/09/05 09:36:00;;;;;;;1.77;1.60;;;28.40;99.90;;;;;;4881208;29;20444;-83
2023/09/05 09:38:26;;;;;;;2.30;2.10;;;28.50;99.90;;;;;;4882764;29;20540;-84
2023/09/05 09:40:52;;;;;;;4.40;2.47;;;28.50;99.90;;;;;;4882598;29;20407;-85
2023/09/05 09:43:17;;;;;;;4.53;2.10;;;28.80;99.90;;;;;;4882665;29;20518;-82
2023/09/05 09:45:43;;;;;;;2.90;2.13;;;28.40;99.90;;;;;;4882631;29;20532;-84
2023/09/05 09:48:14;;;;;;;3.53;2.73;;;29.30;99.90;;;;;;4882651;29;20179;-84
2023/09/05 09:50:41;;;;;;;2.27;1.70;;;29.10;99.90;;;;;;4882402;29;20262;-84
2023/09/05 09:53:11;;;;;;;3.43;2.40;;;28.90;99.90;;;;;;4882481;29;20479;-82
2023/09/05 09:55:41;;;;;;;2.43;1.93;;;28.90;99.90;;;;;;4882299;29;20423;-87
2023/09/05 09:58:10;;;;;;;4.80;1.90;;;29.00;99.90;;;;;;4882640;29;20412;-82
2023/09/05 10:00:38;;;;;;;3.17;1.67;;;29.40;99.90;;;;;;4881195;29;20438;-86
2023/09/05 10:03:08;;;;;;;3.43;2.13;;;29.50;99.90;;;;;;4882206;29;20486;-84
2023/09/05 10:05:35;;;;;;;2.80;2.03;;;29.40;99.90;;;;;;4882439;29;20558;-84
2023/09/05 10:08:01;;;;;;;2.60;1.90;;;29.30;99.90;;;;;;4882080;29;20541;-83
2023/09/05 10:10:28;;;;;;;2.00;1.80;;;29.50;99.90;;;;;;4882275;29;20416;-86
2023/09/05 10:12:56;;;;;;;2.30;2.10;;;29.80;99.90;;;;;;4881225;29;20561;-81
2023/09/05 10:15:23;;;;;;;2.20;2.00;;;29.90;99.90;;;;;;4881847;29;20510;-82
2023/09/05 10:17:50;;;;;;;2.50;1.83;;;30.30;99.90;;;;;;4881364;29;20909;-79
2023/09/05 10:20:19;;;;;;;1.40;1.30;;;30.20;99.90;;;;;;4881671;29;20420;-80
2023/09/05 10:22:46;;;;;;;2.97;1.90;;;30.00;99.90;;;;;;4881635;29;20597;-81
2023/09/05 10:25:14;;;;;;;3.73;2.00;;;30.20;99.90;;;;;;4881613;29;20412;-83
2023/09/05 10:27:40;;;;;;;6.93;2.20;;;29.90;99.90;;;;;;4881408;29;20882;-78
2023/09/05 10:30:12;;;;;;;2.77;2.33;;;30.30;99.90;;;;;;4881842;29;20751;-77
2023/09/05 10:32:44;;;;;;;3.40;2.20;;;30.40;99.90;;;;;;4865542;29;20487;-85
2023/09/05 10:35:16;;;;;;;4.33;2.03;;;30.50;99.90;;;;;;4885942;29;20936;-82
2023/09/05 10:38:01;;;;;;;3.50;1.70;;;30.20;99.90;;;;;;4888324;29;20483;-86
2023/09/05 10:40:35;;;;;;;3.50;2.20;;;30.40;99.90;;;;;;4886487;29;20409;-86
2023/09/05 10:43:03;;;;;;;2.97;2.03;;;30.60;99.90;;;;;;4881388;29;20792;-82
2023/09/05 10:45:29;;;;;;;2.50;2.27;;;30.50;99.90;;;;;;4881919;29;20404;-82
2023/09/05 10:48:07;;;;;;;3.43;1.97;;;30.80;99.90;;;;;;4881708;29;20432;-84
2023/09/05 10:51:08;;;;;;;3.30;1.87;;;30.40;99.90;;;;;;4882147;29;20464;-82
2023/09/05 10:53:35;;;;;;;5.70;2.03;;;30.30;99.90;;;;;;4881234;29;20463;-84
2023/09/05 10:56:01;;;;;;;2.77;2.10;;;30.40;99.90;;;;;;4881160;29;20524;-85
2023/09/05 10:58:36;;;;;;;1.90;1.60;;;30.50;99.90;;;;;;4881434;29;20424;-86
2023/09/05 11:01:01;;;;;;;2.80;2.13;;;30.70;99.90;;;;;;4881004;29;20412;-86
2023/09/05 11:03:36;;;;;;;3.17;2.13;;;31.30;99.90;;;;;;4881303;29;20471;-87
2023/09/05 11:06:11;;;;;;;2.57;1.70;;;31.50;99.90;;;;;;4881099;29;20298;-84
2023/09/05 11:08:37;;;;;;;3.93;2.07;;;31.60;99.90;;;;;;4881362;29;20506;-88
2023/09/05 11:11:04;;;;;;;2.30;2.03;;;31.80;99.90;;;;;;4882034;29;20833;-87
2023/09/05 11:13:30;;;;;;;8.70;2.10;;;32.20;99.90;;;;;;4881077;29;20223;-86
2023/09/05 11:16:01;;;;;;;4.10;1.63;;;32.10;99.90;;;;;;4880933;29;20477;-85
2023/09/05 11:18:26;;;;;;;2.57;1.97;;;32.50;99.90;;;;;;4877680;29;20188;-83
2023/09/05 11:20:53;;;;;;;3.27;1.77;;;32.50;99.90;;;;;;4869397;29;20516;-84
2023/09/05 11:23:28;;;;;;;2.13;1.80;;;32.60;99.90;;;;;;4871387;29;20305;-83
2023/09/05 11:25:55;;;;;;;2.93;1.80;;;32.30;99.90;;;;;;4871894;29;20432;-85
2023/09/05 11:28:24;;;;;;;5.13;1.70;;;32.60;99.90;;;;;;4861998;29;20424;-85
2023/09/05 11:30:57;;;;;;;2.40;1.83;;;32.90;99.90;;;;;;4867232;29;20421;-88
2023/09/05 11:33:24;;;;;;;2.07;1.70;;;33.00;99.90;;;;;;4864002;29;20965;-80
2023/09/05 11:35:50;;;;;;;2.07;1.73;;;33.40;99.90;;;;;;4861685;29;20520;-82
2023/09/05 11:38:18;;;;;;;6.13;2.30;;;32.80;99.90;;;;;;4862216;29;20417;-81
2023/09/05 11:40:50;;;;;;;2.70;1.70;;;33.10;99.90;;;;;;4861623;29;20484;-82
2023/09/05 11:43:16;;;;;;;2.67;1.87;;;32.80;99.90;;;;;;4860792;29;20417;-82
2023/09/05 11:45:43;;;;;;;2.47;1.80;;;33.20;99.90;;;;;;4861724;29;20416;-80
2023/09/05 11:48:12;;;;;;;2.50;1.60;;;33.10;99.90;;;;;;4861950;29;20172;-82
2023/09/05 11:50:39;;;;;;;2.03;1.40;;;33.50;99.90;;;;;;4861888;29;20791;-81
2023/09/05 11:53:06;;;;;;;1.50;1.40;;;33.70;99.90;;;;;;4861440;29;20843;-82
2023/09/05 11:55:32;;;;;;;3.40;1.87;;;33.70;99.90;;;;;;4870405;29;20409;-81
2023/09/05 11:57:59;;;;;;;5.97;1.90;;;34.20;99.90;;;;;;4862614;29;20432;-81
2023/09/05 12:00:26;;;;;;;6.20;2.07;;;34.40;99.90;;;;;;4864333;29;20764;-80
2023/09/05 12:02:56;;;;;;;8.27;2.00;;;34.30;99.90;;;;;;4861734;29;20424;-81
2023/09/05 12:05:22;;;;;;;3.50;1.93;;;34.40;99.90;;;;;;4861941;29;20584;-82
2023/09/05 12:07:49;;;;;;;2.67;1.90;;;34.50;99.90;;;;;;4860465;29;20945;-80
2023/09/05 12:10:15;;;;;;;2.10;1.40;;;34.50;99.90;;;;;;4861710;29;20773;-80
2023/09/05 12:12:55;;;;;;;2.07;1.80;;;34.20;99.90;;;;;;4861210;29;20500;-81
2023/09/05 12:15:34;;;;;;;2.67;1.67;;;34.50;99.90;;;;;;4861767;29;20180;-81
2023/09/05 12:18:03;;;;;;;4.40;2.13;;;35.10;99.20;;;;;;4861570;29;20814;-81
2023/09/05 12:20:33;;;;;;;2.63;1.70;;;35.20;98.80;;;;;;4861629;29;20479;-81
2023/09/05 12:22:59;;;;;;;3.10;1.87;;;35.50;98.70;;;;;;4862770;29;20433;-81
2023/09/05 12:25:28;;;;;;;3.10;1.60;;;35.40;97.10;;;;;;4869104;29;20413;-82
2023/09/05 12:27:55;;;;;;;2.70;1.63;;;35.70;97.00;;;;;;4867238;29;20447;-81
2023/09/05 12:30:29;;;;;;;2.30;1.70;;;35.60;96.00;;;;;;4871588;29;20759;-81
2023/09/05 12:33:03;;;;;;;2.70;1.60;;;36.00;95.70;;;;;;4866078;29;20539;-82
2023/09/05 12:35:31;;;;;;;2.57;1.40;;;36.20;95.20;;;;;;4861036;29;20432;-82
2023/09/05 12:37:58;;;;;;;1.50;1.20;;;35.70;93.80;;;;;;4860983;29;20413;-81
2023/09/05 12:40:25;;;;;;;3.73;1.77;;;36.50;95.00;;;;;;4861049;29;20417;-83
2023/09/05 12:42:51;;;;;;;3.10;1.60;;;36.00;94.20;;;;;;4860873;29;20425;-82
2023/09/05 12:45:18;;;;;;;3.53;1.77;;;35.70;93.90;;;;;;4860889;29;20429;-83
2023/09/05 12:47:49;;;;;;;3.70;1.80;;;36.00;93.30;;;;;;4861044;29;20408;-83